Time;durP1;ratioP1;P1;durP2;ratioP2;P2;SDS_P1;SDS_P2;PMS_P1;PMS_P2;Temp;Humidity;BMP_temperature;BMP_pressure;BME280_temperature;BME280_humidity;BME280_pressure;Samples;Min_cycle;Max_cycle;Signal;HPM_P1;HPM_P2
2023/01/22 00:01:27;;;;;;;17.90;13.55;;;-1.20;99.90;;;;;;5033285;28;20518;-57
2023/01/22 00:03:53;;;;;;;19.98;12.57;;;-1.10;99.90;;;;;;5033145;28;20463;-53
2023/01/22 00:06:19;;;;;;;16.60;12.30;;;-1.10;99.90;;;;;;5033215;28;20033;-54
2023/01/22 00:08:47;;;;;;;16.92;12.57;;;-1.20;99.90;;;;;;5033062;28;20420;-57
2023/01/22 00:11:13;;;;;;;19.38;13.25;;;-1.20;99.90;;;;;;5033359;28;20445;-53
2023/01/22 00:13:40;;;;;;;21.75;13.35;;;-1.20;99.90;;;;;;5032792;28;20029;-50
2023/01/22 00:16:06;;;;;;;18.08;13.75;;;-1.20;99.90;;;;;;5032224;28;20030;-51
2023/01/22 00:18:33;;;;;;;16.98;12.43;;;-1.20;99.90;;;;;;5032910;28;20079;-55
2023/01/22 00:20:59;;;;;;;17.88;12.32;;;-1.20;99.90;;;;;;5032759;28;20025;-54
2023/01/22 00:23:25;;;;;;;17.65;13.77;;;-1.20;99.90;;;;;;5032832;28;20588;-56
2023/01/22 00:26:05;;;;;;;17.60;12.48;;;-1.20;99.90;;;;;;5032543;28;20053;-53
2023/01/22 00:28:31;;;;;;;20.58;13.90;;;-1.20;99.90;;;;;;5032796;28;20457;-53
2023/01/22 00:31:01;;;;;;;16.67;11.05;;;-1.20;99.90;;;;;;5031311;28;20029;-53
2023/01/22 00:33:27;;;;;;;21.52;13.32;;;-1.20;99.90;;;;;;5032653;28;20029;-54
2023/01/22 00:35:52;;;;;;;22.80;13.60;;;-1.20;99.90;;;;;;5032635;28;20364;-52
2023/01/22 00:38:21;;;;;;;17.65;13.07;;;-1.20;99.90;;;;;;5032488;28;20021;-53
2023/01/22 00:40:46;;;;;;;18.20;12.20;;;-1.20;99.90;;;;;;5032500;28;20034;-54
2023/01/22 00:43:12;;;;;;;20.27;13.43;;;-1.20;99.90;;;;;;5032754;28;20488;-54
2023/01/22 00:45:38;;;;;;;19.75;12.85;;;-1.20;99.90;;;;;;5032183;28;20048;-55
2023/01/22 00:48:04;;;;;;;20.65;13.93;;;-1.30;99.90;;;;;;5032367;28;20477;-49
2023/01/22 00:50:31;;;;;;;22.17;13.57;;;-1.30;99.90;;;;;;5032688;28;20652;-53
2023/01/22 00:52:57;;;;;;;18.30;12.50;;;-1.40;99.90;;;;;;5032165;28;20059;-53
2023/01/22 00:55:22;;;;;;;19.20;12.98;;;-1.40;99.90;;;;;;5032343;28;20029;-51
2023/01/22 00:57:48;;;;;;;20.00;14.32;;;-1.50;99.90;;;;;;5032002;28;20525;-50
2023/01/22 01:00:14;;;;;;;23.25;15.07;;;-1.60;99.90;;;;;;5032346;28;20032;-55
2023/01/22 01:05:25;;;;;;;19.42;14.43;;;-1.80;99.90;;;;;;5031743;28;20569;-54
2023/01/22 01:07:51;;;;;;;19.00;13.20;;;-1.80;99.90;;;;;;5031825;28;20052;-54
2023/01/22 01:10:17;;;;;;;22.55;13.95;;;-1.90;99.90;;;;;;5031257;28;20100;-56
2023/01/22 01:12:42;;;;;;;19.38;13.98;;;-2.00;99.90;;;;;;5031273;28;20529;-52
2023/01/22 01:15:09;;;;;;;19.98;12.63;;;-2.10;99.90;;;;;;5030777;28;20033;-51
2023/01/22 01:17:35;;;;;;;18.02;13.52;;;-2.20;99.90;;;;;;5029491;28;20025;-56
2023/01/22 01:20:01;;;;;;;16.65;12.90;;;-2.30;99.90;;;;;;5031243;28;20030;-53
2023/01/22 01:22:26;;;;;;;16.98;12.43;;;-2.30;99.90;;;;;;5031423;28;20018;-51
2023/01/22 01:24:52;;;;;;;17.80;12.55;;;-2.50;99.90;;;;;;5031561;28;20056;-52
2023/01/22 01:30:39;;;;;;;18.15;12.65;;;-2.60;99.90;;;;;;5030663;28;20372;-52
2023/01/22 01:33:05;;;;;;;19.60;12.57;;;-2.80;99.90;;;;;;5030150;28;20524;-53
2023/01/22 01:35:31;;;;;;;18.38;12.73;;;-2.90;99.90;;;;;;5030318;28;20026;-55
2023/01/22 01:37:56;;;;;;;17.60;12.10;;;-3.00;99.90;;;;;;5030469;28;20105;-48
2023/01/22 01:40:22;;;;;;;20.35;14.02;;;-3.00;99.90;;;;;;5030192;28;20021;-51
2023/01/22 01:42:47;;;;;;;20.65;13.35;;;-3.20;99.90;;;;;;5030498;28;20363;-51
2023/01/22 01:45:30;;;;;;;17.80;11.98;;;-3.20;99.90;;;;;;5029169;28;20036;-51
2023/01/22 01:48:27;;;;;;;20.50;13.73;;;-3.30;99.90;;;;;;5030286;28;20068;-50
2023/01/22 01:50:58;;;;;;;20.02;13.57;;;-3.40;99.90;;;;;;5029856;28;20064;-54
2023/01/22 01:53:24;;;;;;;22.17;14.10;;;-3.40;99.90;;;;;;5030418;28;20171;-52
2023/01/22 01:55:51;;;;;;;18.80;13.88;;;-3.50;99.90;;;;;;5030123;28;20100;-50
2023/01/22 01:58:21;;;;;;;22.85;15.55;;;-3.60;99.90;;;;;;5030627;28;20057;-50
2023/01/22 02:00:52;;;;;;;24.58;15.15;;;-3.50;99.90;;;;;;5028865;28;20033;-57
2023/01/22 02:03:19;;;;;;;26.65;16.83;;;-3.60;99.90;;;;;;5029950;28;20412;-50
2023/01/22 02:05:44;;;;;;;25.60;16.63;;;-3.60;99.90;;;;;;5029995;28;20021;-51
2023/01/22 02:08:11;;;;;;;26.48;18.08;;;-3.60;99.90;;;;;;5030431;28;20044;-51
2023/01/22 02:10:37;;;;;;;25.55;17.58;;;-3.60;99.90;;;;;;5030276;28;20119;-54
2023/01/22 02:13:10;;;;;;;26.95;17.38;;;-3.60;99.90;;;;;;5030109;28;20049;-52
2023/01/22 02:15:37;;;;;;;;;;;-3.50;99.90;;;;;;5030811;28;20037;-50
2023/01/22 02:18:03;;;;;;;30.63;17.45;;;-3.50;99.90;;;;;;5030040;28;19905;-53
2023/01/22 02:20:33;;;;;;;27.88;17.80;;;-3.40;99.90;;;;;;5027841;28;20022;-50
2023/01/22 02:22:59;;;;;;;31.55;19.17;;;-3.50;99.90;;;;;;5030162;28;20029;-53
2023/01/22 02:25:25;;;;;;;32.70;18.98;;;-3.40;99.90;;;;;;5029969;28;20381;-56
2023/01/22 02:27:50;;;;;;;33.75;19.48;;;-3.40;99.90;;;;;;5030256;28;20592;-52
2023/01/22 02:30:16;;;;;;;28.50;17.02;;;-3.30;99.90;;;;;;5029895;28;20044;-52
2023/01/22 02:32:42;;;;;;;30.58;18.90;;;-3.20;99.90;;;;;;5030008;28;20021;-54
2023/01/22 02:35:07;;;;;;;24.63;16.50;;;-3.20;99.90;;;;;;5029892;28;20055;-51
2023/01/22 02:37:33;;;;;;;30.05;18.92;;;-3.20;99.90;;;;;;5029917;28;20073;-53
2023/01/22 02:39:59;;;;;;;26.17;16.35;;;-3.10;99.90;;;;;;5032381;28;20028;-51
2023/01/22 02:42:25;;;;;;;30.40;18.42;;;-3.00;99.90;;;;;;5033674;28;20033;-54
2023/01/22 02:44:51;;;;;;;25.65;17.13;;;-3.00;99.90;;;;;;5033301;28;20021;-52
2023/01/22 02:47:17;;;;;;;32.40;18.83;;;-3.00;99.90;;;;;;5033406;28;20522;-53
2023/01/22 02:49:43;;;;;;;28.33;17.30;;;-2.90;99.90;;;;;;5033502;28;20030;-51
2023/01/22 02:52:09;;;;;;;28.25;17.45;;;-2.90;99.90;;;;;;5031471;28;20029;-51
2023/01/22 02:54:34;;;;;;;25.33;17.05;;;-2.90;99.90;;;;;;5031739;28;20034;-52
2023/01/22 02:57:00;;;;;;;28.63;17.40;;;-2.80;99.90;;;;;;5033228;28;20028;-53
2023/01/22 02:59:25;;;;;;;25.05;17.17;;;-2.70;99.90;;;;;;5033449;28;20014;-54
2023/01/22 03:01:51;;;;;;;27.42;17.27;;;-2.60;99.90;;;;;;5033065;28;20084;-51
2023/01/22 03:04:17;;;;;;;28.23;17.50;;;-2.60;99.90;;;;;;5033363;28;20465;-54
2023/01/22 03:06:44;;;;;;;26.30;16.58;;;-2.60;99.90;;;;;;5032993;28;20022;-50
2023/01/22 03:09:12;;;;;;;25.27;16.98;;;-2.50;99.90;;;;;;5032800;28;20021;-52
2023/01/22 03:11:39;;;;;;;26.33;16.38;;;-2.50;99.90;;;;;;5032987;28;20045;-53
2023/01/22 03:22:20;;;;;;;29.08;17.00;;;-2.60;99.90;;;;;;5032950;28;20067;-52
2023/01/22 03:24:49;;;;;;;27.20;16.85;;;-2.60;99.90;;;;;;5032479;28;20061;-50
2023/01/22 03:27:16;;;;;;;23.25;15.13;;;-2.60;99.90;;;;;;5032759;28;20034;-52
2023/01/22 03:29:42;;;;;;;26.77;16.45;;;-2.70;99.90;;;;;;5032759;28;20025;-54
2023/01/22 03:32:07;;;;;;;22.42;15.27;;;-2.80;99.90;;;;;;5032778;28;20045;-53
2023/01/22 03:34:34;;;;;;;22.00;14.48;;;-3.00;99.90;;;;;;5032721;28;20095;-52
2023/01/22 03:37:00;;;;;;;25.08;14.65;;;-3.20;99.90;;;;;;5031149;28;20025;-50
2023/01/22 03:39:26;;;;;;;20.88;14.50;;;-3.40;99.90;;;;;;5031455;28;20480;-51
2023/01/22 03:41:52;;;;;;;24.05;14.73;;;-3.60;99.90;;;;;;5032283;28;20100;-53
2023/01/22 03:44:18;;;;;;;23.95;14.57;;;-3.70;99.90;;;;;;5032596;28;20522;-51
2023/01/22 03:46:44;;;;;;;22.17;15.23;;;-3.70;99.90;;;;;;5032046;28;20128;-50
2023/01/22 03:49:11;;;;;;;24.38;15.98;;;-3.80;99.90;;;;;;5032672;28;20029;-50
2023/01/22 03:51:37;;;;;;;22.67;15.05;;;-3.80;99.90;;;;;;5030937;28;20021;-53
2023/01/22 03:54:03;;;;;;;20.77;14.65;;;-3.90;99.90;;;;;;5032295;28;20075;-52
2023/01/22 03:56:29;;;;;;;25.38;16.55;;;-3.90;99.90;;;;;;5031698;28;20093;-50
2023/01/22 03:58:55;;;;;;;26.13;15.90;;;-3.90;99.90;;;;;;5031695;28;20033;-50
2023/01/22 04:01:24;;;;;;;20.13;14.93;;;-4.00;99.90;;;;;;5032034;28;20017;-51
2023/01/22 04:03:50;;;;;;;21.10;14.73;;;-4.00;99.90;;;;;;5032051;28;20391;-53
2023/01/22 04:06:18;;;;;;;21.40;15.55;;;-4.00;99.90;;;;;;5032173;28;20109;-49
2023/01/22 04:08:45;;;;;;;23.13;15.68;;;-3.90;99.90;;;;;;5030887;28;20018;-51
2023/01/22 04:11:11;;;;;;;22.80;14.65;;;-4.00;99.90;;;;;;5031902;28;20391;-50
2023/01/22 04:13:39;;;;;;;23.20;15.98;;;-4.00;99.90;;;;;;5031408;28;20040;-52
2023/01/22 04:16:06;;;;;;;23.25;15.15;;;-3.90;99.90;;;;;;5030586;28;20052;-51
2023/01/22 04:18:31;;;;;;;32.22;15.75;;;-3.90;99.90;;;;;;5031811;28;20388;-51
2023/01/22 04:20:57;;;;;;;23.13;16.10;;;-3.80;99.90;;;;;;5031847;28;20022;-49
2023/01/22 04:23:24;;;;;;;24.17;15.43;;;-3.80;99.90;;;;;;5031794;28;20435;-54
2023/01/22 04:25:50;;;;;;;29.67;15.60;;;-3.70;99.90;;;;;;5031566;28;20096;-50
2023/01/22 04:28:16;;;;;;;23.67;15.88;;;-3.70;99.90;;;;;;5031251;28;20446;-54
2023/01/22 04:30:43;;;;;;;24.73;15.90;;;-3.60;99.90;;;;;;5031457;28;20369;-51
2023/01/22 04:33:10;;;;;;;28.30;17.88;;;-3.60;99.90;;;;;;5031553;28;20036;-54
2023/01/22 04:35:36;;;;;;;30.15;14.65;;;-3.60;99.90;;;;;;5031372;28;20479;-50
2023/01/22 04:38:04;;;;;;;23.70;15.73;;;-3.60;99.90;;;;;;5031718;28;20042;-50
2023/01/22 04:40:30;;;;;;;27.10;16.55;;;-3.50;99.90;;;;;;5031302;28;20021;-50
2023/01/22 04:43:02;;;;;;;26.45;16.00;;;-3.40;99.90;;;;;;5031397;28;20445;-51
2023/01/22 04:45:28;;;;;;;27.15;18.10;;;-3.40;99.90;;;;;;5031184;28;20036;-52
2023/01/22 04:47:53;;;;;;;26.77;16.92;;;-3.40;99.90;;;;;;5031112;28;20033;-49
2023/01/22 04:50:26;;;;;;;24.40;16.80;;;-3.40;99.90;;;;;;5031464;28;20113;-53
2023/01/22 04:52:53;;;;;;;31.15;17.67;;;-3.30;99.90;;;;;;5031529;28;20030;-53
2023/01/22 04:55:19;;;;;;;23.00;15.70;;;-3.30;99.90;;;;;;5029991;28;20495;-52
2023/01/22 04:57:45;;;;;;;28.85;17.02;;;-3.20;99.90;;;;;;5030973;28;20034;-49
2023/01/22 05:00:12;;;;;;;25.20;15.93;;;-3.20;99.90;;;;;;5030909;28;20136;-50
2023/01/22 05:02:38;;;;;;;27.75;17.23;;;-3.20;99.90;;;;;;5030514;28;20049;-51
2023/01/22 05:05:05;;;;;;;27.58;16.83;;;-3.10;99.90;;;;;;5030929;28;20500;-50
2023/01/22 05:07:30;;;;;;;30.23;17.23;;;-3.10;99.90;;;;;;5031011;28;20025;-51
2023/01/22 05:09:56;;;;;;;23.88;16.45;;;-3.10;99.90;;;;;;5029567;28;20542;-49
2023/01/22 05:12:22;;;;;;;29.80;17.58;;;-3.00;99.90;;;;;;5030975;28;20025;-49
2023/01/22 05:14:47;;;;;;;28.25;18.45;;;-3.00;99.90;;;;;;5030262;28;20049;-52
2023/01/22 05:17:13;;;;;;;30.25;18.58;;;-3.00;99.90;;;;;;5030288;28;20025;-52
2023/01/22 05:19:39;;;;;;;25.98;16.40;;;-3.00;99.90;;;;;;5030817;28;20029;-52
2023/01/22 05:22:04;;;;;;;25.20;16.40;;;-3.00;99.90;;;;;;5030867;28;20393;-50
2023/01/22 05:24:30;;;;;;;26.38;16.77;;;-3.00;99.90;;;;;;5030563;28;20100;-52
2023/01/22 05:26:56;;;;;;;29.65;18.45;;;-2.90;99.90;;;;;;5030596;28;20036;-51
2023/01/22 05:29:24;;;;;;;25.58;16.55;;;-2.90;99.90;;;;;;5030891;28;20025;-53
2023/01/22 05:31:51;;;;;;;25.15;16.13;;;-3.00;99.90;;;;;;5030223;28;20412;-49
2023/01/22 05:34:17;;;;;;;24.77;16.27;;;-3.00;99.90;;;;;;5030524;28;20439;-52
2023/01/22 05:36:43;;;;;;;25.38;15.63;;;-3.00;99.90;;;;;;5030427;28;20009;-52
2023/01/22 05:39:08;;;;;;;23.40;15.68;;;-3.00;99.90;;;;;;5030523;28;20045;-52
2023/01/22 05:41:34;;;;;;;26.15;17.00;;;-3.10;99.90;;;;;;5030216;28;20104;-52
2023/01/22 05:44:01;;;;;;;27.50;17.50;;;-3.10;99.90;;;;;;5030252;28;20030;-51
2023/01/22 05:46:27;;;;;;;28.58;16.58;;;-3.10;99.90;;;;;;5030260;28;20068;-55
2023/01/22 05:48:53;;;;;;;25.67;16.63;;;-3.20;99.90;;;;;;5030267;28;20507;-51
2023/01/22 05:51:18;;;;;;;22.98;16.70;;;-3.10;99.90;;;;;;5030614;28;20075;-52
2023/01/22 05:53:44;;;;;;;31.83;17.13;;;-3.10;99.90;;;;;;5030287;28;20028;-54
2023/01/22 05:56:10;;;;;;;26.50;15.32;;;-3.10;99.90;;;;;;5030330;28;20022;-52
2023/01/22 05:58:36;;;;;;;34.75;14.85;;;-3.00;99.90;;;;;;5030131;28;20017;-55
2023/01/22 06:01:01;;;;;;;26.00;16.63;;;-3.00;99.90;;;;;;5030539;28;20021;-52
2023/01/22 06:03:27;;;;;;;32.65;18.33;;;-3.00;99.90;;;;;;5029652;28;20019;-52
2023/01/22 06:06:12;;;;;;;25.38;16.42;;;-3.00;99.90;;;;;;5029776;28;20490;-52
2023/01/22 06:08:38;;;;;;;28.50;17.85;;;-2.90;99.90;;;;;;5030216;28;20288;-51
2023/01/22 06:11:06;;;;;;;33.05;20.92;;;-2.80;99.90;;;;;;5029978;28;20067;-51
2023/01/22 06:13:32;;;;;;;32.80;21.73;;;-2.80;99.90;;;;;;5029119;28;20036;-50
2023/01/22 06:15:59;;;;;;;35.75;21.75;;;-2.70;99.90;;;;;;5033928;28;20026;-50
2023/01/22 06:18:25;;;;;;;36.50;20.33;;;-2.60;99.90;;;;;;5034060;28;20033;-53
2023/01/22 06:20:51;;;;;;;34.47;19.77;;;-2.60;99.90;;;;;;5033242;28;20029;-53
2023/01/22 06:23:17;;;;;;;30.85;19.63;;;-2.60;99.90;;;;;;5034024;28;20402;-52
2023/01/22 06:25:50;;;;;;;28.38;17.90;;;-2.60;99.90;;;;;;5033822;28;20029;-50
2023/01/22 06:28:16;;;;;;;32.07;18.50;;;-2.60;99.90;;;;;;5034097;28;20084;-54
2023/01/22 06:30:41;;;;;;;33.63;17.40;;;-2.60;99.90;;;;;;5032563;28;20484;-52
2023/01/22 06:33:07;;;;;;;26.10;17.35;;;-2.60;99.90;;;;;;5034080;28;20034;-49
2023/01/22 06:35:32;;;;;;;28.42;18.65;;;-2.60;99.90;;;;;;5033738;28;20098;-52
2023/01/22 06:37:58;;;;;;;28.60;16.55;;;-2.60;99.90;;;;;;5033721;28;20022;-52
2023/01/22 06:40:23;;;;;;;35.50;23.40;;;-2.60;99.90;;;;;;5032273;28;20499;-53
2023/01/22 06:42:49;;;;;;;26.70;16.63;;;-2.60;99.90;;;;;;5033529;28;20030;-53
2023/01/22 06:45:15;;;;;;;28.83;18.52;;;-2.70;99.90;;;;;;5033745;28;20104;-52
2023/01/22 06:47:45;;;;;;;30.55;18.25;;;-2.60;99.90;;;;;;5033885;28;20381;-51
2023/01/22 06:50:11;;;;;;;22.10;16.00;;;-2.60;99.90;;;;;;5033502;28;20025;-50
2023/01/22 06:52:37;;;;;;;34.72;19.10;;;-2.50;99.90;;;;;;5033716;28;20036;-52
2023/01/22 06:55:03;;;;;;;30.65;18.77;;;-2.60;99.90;;;;;;5033195;28;20053;-51
2023/01/22 06:57:29;;;;;;;32.15;18.63;;;-2.50;99.90;;;;;;5033430;28;20400;-51
2023/01/22 06:59:55;;;;;;;29.42;17.13;;;-2.50;99.90;;;;;;5033464;28;20026;-51
2023/01/22 07:02:20;;;;;;;26.02;16.20;;;-2.50;99.90;;;;;;5033288;28;20388;-50
2023/01/22 07:04:46;;;;;;;27.30;16.58;;;-2.50;99.90;;;;;;5033172;28;20061;-50
2023/01/22 07:07:12;;;;;;;29.50;16.55;;;-2.50;99.90;;;;;;5033040;28;20018;-54
2023/01/22 07:09:37;;;;;;;26.70;17.40;;;-2.50;99.90;;;;;;5032812;28;20503;-53
2023/01/22 07:12:03;;;;;;;25.63;15.27;;;-2.50;99.90;;;;;;5033112;28;20465;-53
2023/01/22 07:14:32;;;;;;;27.52;15.95;;;-2.50;99.90;;;;;;5033038;28;20111;-54
2023/01/22 07:16:57;;;;;;;26.75;17.85;;;-2.50;99.90;;;;;;5031747;28;20116;-57
2023/01/22 07:19:23;;;;;;;26.33;17.55;;;-2.50;99.90;;;;;;5032588;28;20109;-56
2023/01/22 07:21:49;;;;;;;31.20;20.98;;;-2.40;99.90;;;;;;5032790;28;20117;-49
2023/01/22 07:24:15;;;;;;;33.58;22.42;;;-2.40;99.90;;;;;;5032210;28;20120;-51
2023/01/22 07:26:42;;;;;;;36.15;22.45;;;-2.40;99.90;;;;;;5032613;28;20033;-57
2023/01/22 07:29:09;;;;;;;29.50;18.35;;;-2.40;99.90;;;;;;5033676;28;20427;-51
2023/01/22 07:31:34;;;;;;;24.55;16.85;;;-2.40;99.90;;;;;;5033665;28;20461;-50
2023/01/22 07:34:02;;;;;;;25.50;16.10;;;-2.30;99.90;;;;;;5033480;28;20029;-56
2023/01/22 07:36:27;;;;;;;28.25;16.85;;;-2.20;99.90;;;;;;5033295;28;20022;-55
2023/01/22 07:38:53;;;;;;;30.80;19.08;;;-2.20;99.90;;;;;;5033161;28;20043;-56
2023/01/22 07:41:19;;;;;;;30.30;19.40;;;-2.10;99.90;;;;;;5032762;28;20064;-55
2023/01/22 07:43:45;;;;;;;34.42;20.45;;;-2.00;99.90;;;;;;5033001;28;20036;-57
2023/01/22 07:46:11;;;;;;;34.30;19.35;;;-1.90;99.90;;;;;;5033230;28;20468;-56
2023/01/22 07:48:37;;;;;;;28.20;16.67;;;-1.90;99.90;;;;;;5033023;28;20495;-55
2023/01/22 07:51:04;;;;;;;26.98;16.58;;;-1.70;99.90;;;;;;5033081;28;20109;-57
2023/01/22 07:53:31;;;;;;;30.25;21.05;;;-1.60;99.90;;;;;;5031778;28;20515;-55
2023/01/22 07:55:56;;;;;;;29.02;19.80;;;-1.60;99.90;;;;;;5031991;28;20026;-57
2023/01/22 07:58:22;;;;;;;29.77;19.33;;;-1.50;99.90;;;;;;5032859;28;20021;-56
2023/01/22 08:00:48;;;;;;;28.52;18.70;;;-1.60;99.90;;;;;;5032695;28;20063;-59
2023/01/22 08:03:14;;;;;;;32.03;18.30;;;-1.40;99.90;;;;;;5032952;28;20052;-55
2023/01/22 08:05:41;;;;;;;30.45;18.70;;;-1.40;99.90;;;;;;5031655;28;20033;-53
2023/01/22 08:08:15;;;;;;;29.80;18.35;;;-1.20;99.90;;;;;;5033091;28;20025;-54
2023/01/22 08:10:42;;;;;;;39.60;26.58;;;-1.10;99.90;;;;;;5032857;28;20120;-52
2023/01/22 08:13:08;;;;;;;62.60;35.78;;;-1.00;99.90;;;;;;5032038;28;20098;-54
2023/01/22 08:15:33;;;;;;;158.10;76.40;;;-0.90;99.90;;;;;;5032825;28;20480;-49
2023/01/22 08:17:59;;;;;;;76.60;43.70;;;-0.80;99.90;;;;;;5032434;28;20044;-52
2023/01/22 08:20:25;;;;;;;41.35;26.38;;;-0.70;99.90;;;;;;5031430;28;20104;-57
2023/01/22 08:22:57;;;;;;;30.15;19.88;;;-0.50;99.90;;;;;;5032610;28;20419;-57
2023/01/22 08:25:22;;;;;;;28.35;18.85;;;-0.10;99.90;;;;;;5032685;28;20029;-53
2023/01/22 08:27:48;;;;;;;32.50;20.05;;;0.10;99.90;;;;;;5032872;28;20052;-55
2023/01/22 08:30:14;;;;;;;34.72;21.92;;;0.20;99.90;;;;;;5032472;28;20084;-57
2023/01/22 08:32:40;;;;;;;31.02;19.90;;;0.40;99.90;;;;;;5032796;28;20058;-55
2023/01/22 08:35:07;;;;;;;35.88;22.55;;;0.70;99.90;;;;;;5032224;28;20056;-55
2023/01/22 08:37:33;;;;;;;27.13;17.83;;;0.90;99.90;;;;;;5031708;28;20112;-57
2023/01/22 08:39:58;;;;;;;22.23;15.10;;;0.90;99.90;;;;;;5031708;28;20104;-55
2023/01/22 08:42:24;;;;;;;31.48;18.75;;;0.90;99.90;;;;;;5032036;28;20469;-56
2023/01/22 08:44:50;;;;;;;25.17;15.63;;;0.80;99.90;;;;;;5031590;28;20052;-56
2023/01/22 08:47:15;;;;;;;23.00;15.80;;;0.80;99.90;;;;;;5032195;28;20095;-56
2023/01/22 08:49:41;;;;;;;22.48;14.32;;;0.90;99.90;;;;;;5032274;28;20072;-57
2023/01/22 08:52:07;;;;;;;21.98;14.57;;;0.90;99.90;;;;;;5032326;28;20048;-56
2023/01/22 08:54:33;;;;;;;26.23;16.98;;;1.10;99.90;;;;;;5032205;28;20480;-55
2023/01/22 08:56:59;;;;;;;26.27;18.38;;;1.10;99.90;;;;;;5032010;28;20030;-55
2023/01/22 08:59:24;;;;;;;22.95;16.17;;;1.30;99.90;;;;;;5031461;28;20029;-57
2023/01/22 09:01:50;;;;;;;19.35;14.18;;;1.40;99.90;;;;;;5031404;28;20030;-57
2023/01/22 09:04:15;;;;;;;23.33;15.75;;;1.60;99.90;;;;;;5031476;28;20074;-57
2023/01/22 09:06:41;;;;;;;23.67;15.70;;;1.70;99.90;;;;;;5031455;28;20033;-54
2023/01/22 09:09:07;;;;;;;21.10;15.30;;;1.90;99.90;;;;;;5032026;28;20040;-58
2023/01/22 09:11:33;;;;;;;22.23;14.98;;;2.00;99.90;;;;;;5031684;28;20037;-53
2023/01/22 09:13:59;;;;;;;21.50;14.40;;;2.20;99.90;;;;;;5031650;28;20100;-54
2023/01/22 09:16:26;;;;;;;22.15;15.48;;;2.20;99.90;;;;;;5031151;28;20358;-56
2023/01/22 09:18:52;;;;;;;23.17;15.00;;;2.20;99.90;;;;;;5030539;28;20029;-57
2023/01/22 09:21:18;;;;;;;26.98;17.25;;;2.20;99.90;;;;;;5031825;28;20025;-56
2023/01/22 09:23:43;;;;;;;23.52;14.82;;;2.20;99.90;;;;;;5031861;28;20025;-58
2023/01/22 09:26:10;;;;;;;22.45;14.95;;;2.20;99.90;;;;;;5031852;28;20523;-59
2023/01/22 09:28:36;;;;;;;27.75;16.83;;;2.10;99.90;;;;;;5031772;28;20079;-56
2023/01/22 09:31:02;;;;;;;21.85;15.70;;;2.00;99.90;;;;;;5030118;28;20040;-58
2023/01/22 09:33:28;;;;;;;25.02;17.02;;;1.90;99.90;;;;;;5030973;28;20018;-52
2023/01/22 09:35:53;;;;;;;23.30;15.95;;;1.90;99.90;;;;;;5031058;28;20189;-56
2023/01/22 09:38:19;;;;;;;24.00;16.10;;;1.70;99.90;;;;;;5031112;28;20029;-57
2023/01/22 09:40:51;;;;;;;21.98;15.55;;;1.60;99.90;;;;;;5031271;28;20033;-55
2023/01/22 09:43:33;;;;;;;24.60;15.77;;;1.50;99.90;;;;;;5031642;28;20014;-56
2023/01/22 09:46:04;;;;;;;22.73;16.25;;;1.60;99.90;;;;;;5030855;28;20068;-54
2023/01/22 09:48:42;;;;;;;23.85;15.65;;;1.60;99.90;;;;;;5030877;28;20026;-56
2023/01/22 09:51:14;;;;;;;24.52;15.43;;;1.70;99.90;;;;;;5030561;28;20022;-56
2023/01/22 09:53:46;;;;;;;22.75;15.43;;;1.80;99.90;;;;;;5030968;28;20072;-54
2023/01/22 09:56:37;;;;;;;23.80;16.17;;;2.10;99.90;;;;;;5030831;28;20465;-56
2023/01/22 09:59:05;;;;;;;21.60;14.95;;;2.40;99.90;;;;;;5030906;28;20025;-53
2023/01/22 10:01:31;;;;;;;20.13;14.10;;;2.80;99.90;;;;;;5030715;28;20604;-56
2023/01/22 10:04:02;;;;;;;21.40;15.15;;;3.20;99.90;;;;;;5030357;28;20155;-57
2023/01/22 10:06:29;;;;;;;21.10;14.63;;;3.30;99.90;;;;;;5030460;28;20084;-55
2023/01/22 10:09:09;;;;;;;21.38;14.20;;;3.60;99.90;;;;;;5030425;28;20052;-56
2023/01/22 10:11:38;;;;;;;21.75;15.32;;;3.80;99.90;;;;;;5031073;28;20041;-54
2023/01/22 10:14:07;;;;;;;19.65;14.32;;;4.00;99.90;;;;;;5030695;28;20026;-55
2023/01/22 10:16:32;;;;;;;21.65;15.05;;;4.10;99.60;;;;;;5029638;28;20029;-53
2023/01/22 10:19:03;;;;;;;21.98;14.45;;;4.20;99.00;;;;;;5030775;28;20033;-56
2023/01/22 10:21:32;;;;;;;22.58;15.57;;;4.50;98.40;;;;;;5030581;28;20055;-54
2023/01/22 10:23:58;;;;;;;20.08;14.43;;;4.70;97.70;;;;;;5030662;28;20033;-57
2023/01/22 10:26:27;;;;;;;20.73;14.50;;;4.60;97.50;;;;;;5030684;28;20021;-57
2023/01/22 10:28:58;;;;;;;23.63;16.08;;;4.40;97.70;;;;;;5030449;28;20036;-52
2023/01/22 10:31:32;;;;;;;20.67;14.85;;;4.00;98.20;;;;;;5030564;28;20037;-56
2023/01/22 10:34:00;;;;;;;20.23;15.45;;;3.70;99.00;;;;;;5030400;28;20025;-57
2023/01/22 10:36:27;;;;;;;23.50;16.02;;;3.50;99.60;;;;;;5030404;28;20022;-53
2023/01/22 10:39:07;;;;;;;25.38;15.32;;;3.30;99.90;;;;;;5030480;28;20452;-55
2023/01/22 10:41:33;;;;;;;23.40;15.73;;;2.80;99.90;;;;;;5030812;28;20029;-57
2023/01/22 10:44:17;;;;;;;21.20;15.05;;;3.00;99.90;;;;;;5030348;28;20044;-56
2023/01/22 10:46:42;;;;;;;20.92;15.02;;;2.90;99.90;;;;;;5030385;28;20077;-55
2023/01/22 10:49:23;;;;;;;21.67;15.18;;;3.30;99.90;;;;;;5030501;28;20064;-56
2023/01/22 10:52:22;;;;;;;24.83;15.75;;;3.40;99.90;;;;;;5041856;28;20025;-56
2023/01/22 10:54:57;;;;;;;23.42;15.90;;;4.00;99.70;;;;;;5048445;28;20121;-54
2023/01/22 10:57:32;;;;;;;20.40;14.80;;;4.20;98.60;;;;;;5050445;28;20025;-51
2023/01/22 11:00:04;;;;;;;24.85;15.77;;;4.30;98.90;;;;;;5049962;28;20741;-53
2023/01/22 11:02:33;;;;;;;20.77;14.73;;;4.50;98.40;;;;;;5053409;28;20479;-56
2023/01/22 11:05:19;;;;;;;24.25;17.10;;;4.70;97.90;;;;;;5053267;28;20100;-52
2023/01/22 11:07:48;;;;;;;26.27;16.90;;;4.20;98.50;;;;;;5052709;28;20025;-55
2023/01/22 11:10:30;;;;;;;25.00;16.50;;;4.40;97.60;;;;;;5052812;28;20150;-54
2023/01/22 11:13:09;;;;;;;20.25;14.32;;;4.00;98.90;;;;;;5053704;28;20032;-51
2023/01/22 11:15:55;;;;;;;22.58;14.18;;;4.30;98.90;;;;;;5053843;28;20032;-57
2023/01/22 11:18:37;;;;;;;19.15;13.95;;;4.40;97.90;;;;;;5053944;28;20017;-57
2023/01/22 11:21:32;;;;;;;20.08;14.38;;;4.30;98.40;;;;;;5053987;28;20100;-56
2023/01/22 11:24:20;;;;;;;21.60;14.50;;;4.10;98.10;;;;;;5048239;28;20041;-56
2023/01/22 11:26:58;;;;;;;19.33;13.50;;;3.90;98.30;;;;;;5002720;28;20034;-53
2023/01/22 11:29:30;;;;;;;20.63;14.57;;;3.80;98.70;;;;;;5002023;28;22404;-52
2023/01/22 11:32:39;;;;;;;21.67;14.57;;;3.40;99.00;;;;;;5002792;28;20034;-55
2023/01/22 11:35:26;;;;;;;19.95;14.45;;;3.00;99.90;;;;;;5002437;28;20030;-56
2023/01/22 11:38:07;;;;;;;20.02;14.95;;;2.70;99.90;;;;;;5002585;28;20026;-54
2023/01/22 11:41:17;;;;;;;19.45;13.05;;;2.80;99.90;;;;;;5002619;28;20065;-54
2023/01/22 11:44:06;;;;;;;20.05;14.20;;;2.60;99.90;;;;;;4961694;28;20054;-50
2023/01/22 11:46:50;;;;;;;151.20;72.28;;;2.40;99.90;;;;;;5000453;28;20046;-54
2023/01/22 11:49:40;;;;;;;61.10;33.85;;;2.40;99.90;;;;;;5002148;28;22656;-56
2023/01/22 11:52:05;;;;;;;63.28;39.55;;;2.50;99.90;;;;;;5002111;28;20313;-57
2023/01/22 11:54:58;;;;;;;28.95;20.05;;;2.40;99.90;;;;;;5002995;28;20406;-53
2023/01/22 11:57:26;;;;;;;19.55;13.95;;;2.30;99.90;;;;;;5001404;28;20037;-52
2023/01/22 12:00:23;;;;;;;20.35;15.10;;;2.50;99.90;;;;;;5002660;28;20037;-54
2023/01/22 12:03:17;;;;;;;20.63;14.75;;;2.20;99.90;;;;;;5002475;28;20022;-52
2023/01/22 12:05:57;;;;;;;18.95;13.75;;;2.00;99.90;;;;;;5002703;28;20030;-54
2023/01/22 12:08:31;;;;;;;18.50;13.90;;;2.10;99.90;;;;;;5016999;28;20032;-56
2023/01/22 12:11:06;;;;;;;20.63;13.98;;;2.30;99.90;;;;;;5020929;28;20373;-52
2023/01/22 12:14:02;;;;;;;18.90;14.27;;;2.20;99.90;;;;;;5021378;28;20049;-57
2023/01/22 12:16:47;;;;;;;19.10;12.85;;;2.30;99.90;;;;;;5006099;28;20030;-53
2023/01/22 12:19:48;;;;;;;20.73;14.05;;;2.60;99.90;;;;;;5002601;28;20509;-53
2023/01/22 12:22:42;;;;;;;25.42;15.48;;;2.60;99.90;;;;;;5002282;28;20432;-56
2023/01/22 12:25:52;;;;;;;19.60;14.48;;;2.70;99.90;;;;;;5003412;28;20038;-58
2023/01/22 12:28:20;;;;;;;26.27;14.95;;;2.70;99.90;;;;;;5001874;28;20353;-53
2023/01/22 12:31:00;;;;;;;20.23;14.60;;;2.50;99.90;;;;;;5002295;28;20488;-53
2023/01/22 12:33:29;;;;;;;21.05;14.75;;;2.30;99.90;;;;;;5002008;28;20038;-56
2023/01/22 12:35:58;;;;;;;19.95;14.30;;;2.30;99.90;;;;;;5001466;28;20120;-56
2023/01/22 12:38:54;;;;;;;18.23;14.43;;;2.40;99.90;;;;;;5002204;28;20038;-52
2023/01/22 12:41:57;;;;;;;20.40;14.40;;;2.10;99.90;;;;;;5002010;28;20042;-55
2023/01/22 12:44:39;;;;;;;20.00;14.23;;;2.00;99.90;;;;;;5003564;28;20459;-57
2023/01/22 12:47:24;;;;;;;20.38;15.98;;;2.10;99.90;;;;;;5001112;28;20104;-54
2023/01/22 12:49:51;;;;;;;21.38;14.10;;;2.30;99.90;;;;;;5001125;28;20046;-54
2023/01/22 12:52:43;;;;;;;20.17;14.35;;;2.30;99.90;;;;;;5002178;28;20354;-53
2023/01/22 12:55:42;;;;;;;20.73;14.02;;;2.40;99.90;;;;;;4999379;28;20100;-58
2023/01/22 12:58:25;;;;;;;21.80;15.25;;;2.50;99.90;;;;;;4979557;28;20049;-56